Time;durP1;ratioP1;P1;durP2;ratioP2;P2;SDS_P1;SDS_P2;PMS_P1;PMS_P2;Temp;Humidity;BMP_temperature;BMP_pressure;BME280_temperature;BME280_humidity;BME280_pressure;Samples;Min_cycle;Max_cycle;Signal;HPM_P1;HPM_P2
2023/05/14 00:00:42;;;;;;;7.70;7.00;;;19.80;59.40;;;;;;5072976;28;20250;-50
2023/05/14 00:03:08;;;;;;;8.17;7.37;;;19.80;58.70;;;;;;5062228;28;20188;-50
2023/05/14 00:05:33;;;;;;;8.03;7.43;;;19.80;58.60;;;;;;5061705;28;20254;-49
2023/05/14 00:07:59;;;;;;;7.33;6.70;;;19.90;58.60;;;;;;5062889;28;20227;-51
2023/05/14 00:10:26;;;;;;;7.73;7.03;;;19.90;58.70;;;;;;5068377;28;20716;-50
2023/05/14 00:12:52;;;;;;;8.20;7.60;;;20.00;58.80;;;;;;5062405;28;20238;-49
2023/05/14 00:15:17;;;;;;;9.33;7.20;;;20.00;58.50;;;;;;5061858;28;20438;-51
2023/05/14 00:17:43;;;;;;;8.20;7.40;;;20.00;58.40;;;;;;5060839;28;20204;-52
2023/05/14 00:20:10;;;;;;;7.07;6.47;;;20.00;58.00;;;;;;5061172;28;20188;-52
2023/05/14 00:22:38;;;;;;;7.80;7.10;;;20.00;57.70;;;;;;5058786;28;20195;-49
2023/05/14 00:25:05;;;;;;;7.53;6.87;;;20.00;57.70;;;;;;5064527;28;20460;-49
2023/05/14 00:27:31;;;;;;;7.03;6.43;;;20.00;57.70;;;;;;5069103;28;20426;-49
2023/05/14 00:29:56;;;;;;;7.03;6.43;;;19.90;57.80;;;;;;5072913;28;20434;-50
2023/05/14 00:32:22;;;;;;;6.73;6.23;;;19.90;58.10;;;;;;5060641;28;20234;-49
2023/05/14 00:34:48;;;;;;;7.40;6.80;;;19.80;57.90;;;;;;5068336;28;20192;-49
2023/05/14 00:37:13;;;;;;;6.67;6.07;;;19.80;58.20;;;;;;5064449;28;20434;-50
2023/05/14 00:39:39;;;;;;;11.60;7.10;;;19.90;58.30;;;;;;5071436;28;20695;-51
2023/05/14 00:42:05;;;;;;;7.10;6.50;;;19.90;58.00;;;;;;5063641;28;20227;-51
2023/05/14 00:44:31;;;;;;;6.73;6.23;;;20.00;57.70;;;;;;5061363;28;20196;-50
2023/05/14 00:46:57;;;;;;;7.30;6.67;;;20.00;57.60;;;;;;5062674;28;20495;-51
2023/05/14 00:49:23;;;;;;;7.03;6.40;;;20.00;57.50;;;;;;5070981;28;20600;-49
2023/05/14 00:51:49;;;;;;;6.40;5.80;;;20.10;57.40;;;;;;5068095;28;20442;-50
2023/05/14 00:54:18;;;;;;;7.80;7.00;;;20.10;57.00;;;;;;5065395;28;20242;-50
2023/05/14 00:56:45;;;;;;;7.50;6.90;;;20.10;56.80;;;;;;5072028;28;20654;-50
2023/05/14 00:59:11;;;;;;;7.23;6.63;;;20.10;56.60;;;;;;5072572;28;20909;-49
2023/05/14 01:01:37;;;;;;;8.07;7.43;;;20.00;56.70;;;;;;5072530;28;20535;-51
2023/05/14 01:04:03;;;;;;;8.93;6.70;;;20.10;56.80;;;;;;5072441;28;20187;-51
2023/05/14 01:07:01;;;;;;;8.30;7.57;;;20.10;56.70;;;;;;5071336;28;20422;-52
2023/05/14 01:09:35;;;;;;;7.70;7.10;;;20.00;56.60;;;;;;5066077;28;20437;-50
2023/05/14 01:12:14;;;;;;;7.87;7.17;;;20.00;56.80;;;;;;5060204;28;20430;-50
2023/05/14 01:14:51;;;;;;;8.67;6.23;;;20.00;56.90;;;;;;5068296;28;20434;-53
2023/05/14 01:17:21;;;;;;;8.20;7.40;;;20.00;57.10;;;;;;5072579;28;20579;-51
2023/05/14 01:19:47;;;;;;;10.50;7.10;;;19.90;57.20;;;;;;5069624;28;20554;-49
2023/05/14 01:22:13;;;;;;;7.70;7.00;;;20.00;57.20;;;;;;5060719;28;20536;-51
2023/05/14 01:24:39;;;;;;;7.30;6.70;;;20.00;57.10;;;;;;5063883;28;21239;-52
2023/05/14 01:27:22;;;;;;;7.30;6.50;;;19.90;57.10;;;;;;5065632;28;20196;-53
2023/05/14 01:30:01;;;;;;;7.90;7.20;;;20.00;57.40;;;;;;5057504;28;20270;-49
2023/05/14 01:32:29;;;;;;;8.83;8.03;;;20.00;57.10;;;;;;5066094;28;20503;-54
2023/05/14 01:34:57;;;;;;;8.87;7.47;;;20.00;57.00;;;;;;5057628;28;20453;-49
2023/05/14 01:37:24;;;;;;;7.87;7.27;;;19.90;57.70;;;;;;5062318;28;20480;-50
2023/05/14 01:39:51;;;;;;;9.33;7.60;;;19.80;57.50;;;;;;5045185;28;20450;-50
2023/05/14 01:42:17;;;;;;;8.07;7.40;;;19.80;57.40;;;;;;5056410;28;20570;-50
2023/05/14 01:44:42;;;;;;;7.73;7.10;;;19.80;57.50;;;;;;5059391;28;20475;-51
2023/05/14 01:47:08;;;;;;;8.00;6.47;;;19.80;57.60;;;;;;5063354;28;20196;-53
2023/05/14 01:49:35;;;;;;;8.93;8.03;;;19.80;57.70;;;;;;5065696;28;20187;-53
2023/05/14 01:52:01;;;;;;;11.17;7.80;;;19.80;57.20;;;;;;5059023;28;20191;-51
2023/05/14 01:54:27;;;;;;;9.50;7.67;;;19.80;57.00;;;;;;5064467;28;20470;-53
2023/05/14 01:56:52;;;;;;;8.90;8.07;;;19.90;56.90;;;;;;5059716;28;20250;-50
2023/05/14 01:59:18;;;;;;;7.90;7.30;;;19.90;57.10;;;;;;5067608;28;20559;-53
2023/05/14 02:01:43;;;;;;;7.87;7.20;;;19.90;57.10;;;;;;5073174;28;20223;-53
2023/05/14 02:04:09;;;;;;;6.63;6.13;;;19.90;57.10;;;;;;5065222;28;20259;-54
2023/05/14 02:06:34;;;;;;;7.80;7.03;;;19.90;56.90;;;;;;5062103;28;20196;-53
2023/05/14 02:09:00;;;;;;;7.53;6.87;;;19.90;57.00;;;;;;5060321;28;20204;-53
2023/05/14 02:11:26;;;;;;;6.70;6.10;;;19.90;56.70;;;;;;5069262;28;20203;-51
2023/05/14 02:13:52;;;;;;;5.80;5.30;;;19.80;56.80;;;;;;5069855;28;20536;-51
2023/05/14 02:16:18;;;;;;;6.57;6.00;;;19.90;57.40;;;;;;5067624;28;20329;-53
2023/05/14 02:18:43;;;;;;;6.00;5.40;;;19.90;57.40;;;;;;5068717;28;20211;-53
2023/05/14 02:21:09;;;;;;;8.07;7.37;;;20.00;56.80;;;;;;5056698;28;21380;-54
2023/05/14 02:23:35;;;;;;;7.80;7.10;;;20.00;56.30;;;;;;5067055;28;20199;-51
2023/05/14 02:26:00;;;;;;;7.40;6.70;;;19.90;55.80;;;;;;5065359;28;20557;-53
2023/05/14 02:28:26;;;;;;;6.83;6.20;;;19.80;55.70;;;;;;5066974;28;20588;-54
2023/05/14 02:30:56;;;;;;;7.03;6.43;;;19.70;55.80;;;;;;5061736;28;20204;-54
2023/05/14 02:33:22;;;;;;;6.33;5.83;;;19.70;56.00;;;;;;5065447;28;20200;-54
2023/05/14 02:35:48;;;;;;;7.33;6.70;;;19.60;56.10;;;;;;5068501;28;21295;-50
2023/05/14 02:38:13;;;;;;;6.57;5.90;;;19.50;56.60;;;;;;5070780;28;20188;-52
2023/05/14 02:40:39;;;;;;;7.83;6.50;;;19.50;57.00;;;;;;5067924;28;20853;-49
2023/05/14 02:43:05;;;;;;;7.10;6.50;;;19.50;56.90;;;;;;5064460;28;20208;-52
2023/05/14 02:45:30;;;;;;;6.47;5.87;;;19.50;56.90;;;;;;5068492;28;20188;-52
2023/05/14 02:47:56;;;;;;;6.90;6.27;;;19.40;56.90;;;;;;5065980;28;20188;-52
2023/05/14 02:50:21;;;;;;;6.33;5.83;;;19.50;57.10;;;;;;5066503;28;20628;-51
2023/05/14 02:52:47;;;;;;;7.70;6.80;;;19.40;57.10;;;;;;5060659;28;20617;-51
2023/05/14 02:55:12;;;;;;;6.53;6.03;;;19.40;57.00;;;;;;5067137;28;20226;-50
2023/05/14 02:57:38;;;;;;;5.70;5.27;;;19.40;57.10;;;;;;5070801;28;20708;-49
2023/05/14 03:00:04;;;;;;;6.17;5.47;;;19.40;57.20;;;;;;5070412;28;20191;-52
2023/05/14 03:02:30;;;;;;;6.43;5.93;;;19.40;57.20;;;;;;5070407;28;20227;-50
2023/05/14 03:04:55;;;;;;;5.47;5.07;;;19.40;57.20;;;;;;5065356;28;20916;-49
2023/05/14 03:07:21;;;;;;;6.43;5.93;;;19.40;57.20;;;;;;5070643;28;20600;-51
2023/05/14 03:09:47;;;;;;;5.83;5.30;;;19.40;57.20;;;;;;5067296;28;20192;-49
2023/05/14 03:12:13;;;;;;;5.90;5.40;;;19.30;57.20;;;;;;5062889;28;20565;-49
2023/05/14 03:14:38;;;;;;;8.10;5.70;;;19.30;57.40;;;;;;5065313;28;20195;-50
2023/05/14 03:17:04;;;;;;;6.73;6.20;;;19.40;57.90;;;;;;5070748;28;20421;-48
2023/05/14 03:19:30;;;;;;;6.20;5.70;;;19.40;57.80;;;;;;5066298;28;20210;-49
2023/05/14 03:21:55;;;;;;;6.37;5.87;;;19.40;57.60;;;;;;5060460;28;20333;-50
2023/05/14 03:24:21;;;;;;;5.87;5.33;;;19.40;57.50;;;;;;5069398;28;20195;-49
2023/05/14 03:26:46;;;;;;;6.60;6.00;;;19.40;57.60;;;;;;5062110;28;20266;-51
2023/05/14 03:29:12;;;;;;;6.00;5.40;;;19.40;57.60;;;;;;5063212;28;20196;-48
2023/05/14 03:31:38;;;;;;;6.43;5.83;;;19.50;57.50;;;;;;5057756;28;20191;-48
2023/05/14 03:34:03;;;;;;;6.33;5.83;;;19.50;57.40;;;;;;5060027;28;20199;-48
2023/05/14 03:36:29;;;;;;;6.20;5.60;;;19.50;57.40;;;;;;5058291;28;20225;-49
2023/05/14 03:38:54;;;;;;;6.80;6.20;;;19.50;57.60;;;;;;5053237;28;20519;-52
2023/05/14 03:41:21;;;;;;;7.20;6.60;;;19.50;57.50;;;;;;5062781;28;20223;-51
2023/05/14 03:43:47;;;;;;;6.80;6.30;;;19.50;57.60;;;;;;5061084;28;20219;-52
2023/05/14 03:46:12;;;;;;;8.47;6.57;;;19.50;57.50;;;;;;5058195;28;21163;-50
2023/05/14 03:48:38;;;;;;;7.17;6.63;;;19.50;57.60;;;;;;5056812;28;20207;-50
2023/05/14 03:51:04;;;;;;;7.73;7.03;;;19.40;57.50;;;;;;5063315;28;20195;-49
2023/05/14 03:53:29;;;;;;;7.77;7.17;;;19.40;57.50;;;;;;5062147;28;20194;-49
2023/05/14 03:55:55;;;;;;;6.90;6.30;;;19.40;57.60;;;;;;5066728;28;20790;-51
2023/05/14 03:58:21;;;;;;;7.67;6.97;;;19.50;58.00;;;;;;5064038;28;20199;-51
2023/05/14 04:00:46;;;;;;;7.33;6.77;;;19.50;57.70;;;;;;5064188;28;20998;-48
2023/05/14 04:03:12;;;;;;;7.70;7.00;;;19.50;57.90;;;;;;5059788;28;21994;-49
2023/05/14 04:05:37;;;;;;;6.90;6.30;;;19.50;57.80;;;;;;5061611;28;20200;-50
2023/05/14 04:08:03;;;;;;;7.70;6.20;;;19.50;57.80;;;;;;5057064;28;20200;-51
2023/05/14 04:10:30;;;;;;;6.77;6.20;;;19.50;57.90;;;;;;5054399;28;20618;-50
2023/05/14 04:12:56;;;;;;;7.27;6.67;;;19.50;58.00;;;;;;5066176;28;20651;-50
2023/05/14 04:15:22;;;;;;;7.73;6.50;;;19.50;57.80;;;;;;5062541;28;20434;-52
2023/05/14 04:17:47;;;;;;;6.97;6.47;;;19.60;57.80;;;;;;5063584;28;20196;-52
2023/05/14 04:20:13;;;;;;;7.40;6.73;;;19.50;57.70;;;;;;5060406;28;20249;-52
2023/05/14 04:22:38;;;;;;;8.70;7.90;;;19.50;57.70;;;;;;5060254;28;20251;-51
2023/05/14 04:25:05;;;;;;;6.80;6.23;;;19.50;57.80;;;;;;5060542;28;20193;-49
2023/05/14 04:27:32;;;;;;;7.87;7.23;;;19.50;57.80;;;;;;5063000;28;20726;-53
2023/05/14 04:29:58;;;;;;;7.20;6.57;;;19.50;57.80;;;;;;5060984;28;20547;-50
2023/05/14 04:32:24;;;;;;;7.17;6.57;;;19.50;57.80;;;;;;5063472;28;21005;-52
2023/05/14 04:34:50;;;;;;;7.77;7.17;;;19.40;57.90;;;;;;5066617;28;20192;-50
2023/05/14 04:37:15;;;;;;;7.00;6.30;;;19.40;57.90;;;;;;5065632;28;20456;-48
2023/05/14 04:39:41;;;;;;;8.70;6.80;;;19.40;58.00;;;;;;5075993;28;20226;-49
2023/05/14 04:42:07;;;;;;;7.47;6.83;;;19.40;57.90;;;;;;5064875;28;20224;-48
2023/05/14 04:44:34;;;;;;;7.77;7.07;;;19.40;58.00;;;;;;5068486;28;20196;-50
2023/05/14 04:46:59;;;;;;;8.43;7.73;;;19.40;58.00;;;;;;5062771;28;20192;-49
2023/05/14 04:49:25;;;;;;;6.77;6.27;;;19.30;58.10;;;;;;5063968;28;20793;-52
2023/05/14 04:51:51;;;;;;;7.63;6.93;;;19.20;58.40;;;;;;5062566;28;20368;-50
2023/05/14 04:54:16;;;;;;;9.83;6.80;;;19.10;58.40;;;;;;5067804;28;20323;-51
2023/05/14 04:56:42;;;;;;;7.80;6.70;;;19.00;58.70;;;;;;5061715;28;20455;-50
2023/05/14 04:59:07;;;;;;;8.53;7.20;;;19.00;59.10;;;;;;5070329;28;20196;-52
2023/05/14 05:01:33;;;;;;;7.73;6.47;;;18.90;59.10;;;;;;5062825;28;20687;-52
2023/05/14 05:03:59;;;;;;;8.20;7.40;;;18.90;59.20;;;;;;5060501;28;20275;-49
2023/05/14 05:06:24;;;;;;;9.63;8.73;;;18.90;59.60;;;;;;5061018;28;20195;-51
2023/05/14 05:08:50;;;;;;;7.70;7.10;;;18.90;59.90;;;;;;5064714;28;20200;-51
2023/05/14 05:11:15;;;;;;;7.27;6.67;;;18.90;60.30;;;;;;5045210;28;20204;-51
2023/05/14 05:13:41;;;;;;;6.73;6.23;;;19.00;60.70;;;;;;5061836;28;20216;-49
2023/05/14 05:16:06;;;;;;;10.23;7.23;;;19.10;60.20;;;;;;5060984;28;20258;-48
2023/05/14 05:18:32;;;;;;;7.30;6.70;;;19.10;59.80;;;;;;5071284;28;20196;-48
2023/05/14 05:20:58;;;;;;;7.30;6.67;;;19.20;59.50;;;;;;5071533;28;21399;-49
2023/05/14 05:23:23;;;;;;;9.43;8.63;;;19.10;59.20;;;;;;5067340;28;20217;-52
2023/05/14 05:25:49;;;;;;;7.83;7.23;;;19.10;59.20;;;;;;5060376;28;20196;-52
2023/05/14 05:28:15;;;;;;;7.57;6.93;;;19.00;59.10;;;;;;5060097;28;20586;-51
2023/05/14 05:30:41;;;;;;;7.97;7.27;;;19.00;59.20;;;;;;5065303;28;20438;-49
2023/05/14 05:33:06;;;;;;;7.80;7.10;;;18.90;59.40;;;;;;5067013;28;20859;-48
2023/05/14 05:35:32;;;;;;;7.57;6.93;;;18.90;59.50;;;;;;5059750;28;20195;-49
2023/05/14 05:37:57;;;;;;;7.50;6.90;;;18.80;59.70;;;;;;5064333;28;20183;-47
2023/05/14 05:40:23;;;;;;;9.80;8.90;;;18.80;60.10;;;;;;5068261;28;20274;-47
2023/05/14 05:42:49;;;;;;;8.63;7.93;;;18.70;60.30;;;;;;5068322;28;20254;-50
2023/05/14 05:45:14;;;;;;;6.80;6.30;;;18.70;60.50;;;;;;5054411;28;20200;-48
2023/05/14 05:47:40;;;;;;;8.47;7.57;;;18.80;60.50;;;;;;5065016;28;20257;-48
2023/05/14 05:50:06;;;;;;;10.20;8.27;;;18.70;60.80;;;;;;5071296;28;20557;-48
2023/05/14 05:52:32;;;;;;;9.90;6.73;;;18.70;60.90;;;;;;5060549;28;20192;-48
2023/05/14 05:54:57;;;;;;;8.17;7.37;;;18.70;60.90;;;;;;5068437;28;20524;-48
2023/05/14 05:57:25;;;;;;;8.33;7.67;;;18.70;60.80;;;;;;5065712;28;20184;-50
2023/05/14 05:59:51;;;;;;;8.67;7.87;;;18.60;60.80;;;;;;5063724;28;20207;-49
2023/05/14 06:02:17;;;;;;;8.30;7.60;;;18.60;60.80;;;;;;5059763;28;20911;-50
2023/05/14 06:04:43;;;;;;;8.60;7.80;;;18.60;60.80;;;;;;5055635;28;20197;-47
2023/05/14 06:07:08;;;;;;;8.50;7.70;;;18.50;60.80;;;;;;5071470;28;20497;-49
2023/05/14 06:09:34;;;;;;;8.63;7.93;;;18.50;61.00;;;;;;5067619;28;20631;-49
2023/05/14 06:12:00;;;;;;;8.00;7.30;;;18.60;61.50;;;;;;5070801;28;20329;-49
2023/05/14 06:14:25;;;;;;;9.87;8.30;;;18.60;61.30;;;;;;5068335;28;20286;-47
2023/05/14 06:16:51;;;;;;;10.43;7.93;;;18.70;61.30;;;;;;5057936;28;20189;-48
2023/05/14 06:19:16;;;;;;;8.77;7.97;;;18.70;61.00;;;;;;5067253;28;20195;-47
2023/05/14 06:21:43;;;;;;;8.73;7.93;;;18.80;60.90;;;;;;5065128;28;20219;-47
2023/05/14 06:24:09;;;;;;;9.03;8.30;;;18.80;60.70;;;;;;5062521;28;20200;-48
2023/05/14 06:26:34;;;;;;;8.50;7.80;;;18.80;60.70;;;;;;5062494;28;20431;-49
2023/05/14 06:29:00;;;;;;;8.90;8.00;;;18.70;60.50;;;;;;5058757;28;20193;-49
2023/05/14 06:31:25;;;;;;;9.20;8.30;;;18.70;60.60;;;;;;5066918;28;20534;-49
2023/05/14 06:33:51;;;;;;;9.03;8.23;;;18.70;60.20;;;;;;5066825;28;20647;-49
2023/05/14 06:36:16;;;;;;;9.13;8.33;;;18.70;60.20;;;;;;5064102;28;20207;-52
2023/05/14 06:38:42;;;;;;;9.20;8.27;;;18.80;60.10;;;;;;5064196;28;20188;-48
2023/05/14 06:41:07;;;;;;;9.30;8.03;;;18.80;59.80;;;;;;5063404;28;20742;-49
2023/05/14 06:43:33;;;;;;;8.77;8.03;;;18.80;59.60;;;;;;5062511;28;20196;-52
2023/05/14 06:46:00;;;;;;;8.90;8.10;;;18.80;59.50;;;;;;5066936;28;20199;-52
2023/05/14 06:48:28;;;;;;;9.80;8.90;;;18.80;59.70;;;;;;5060812;28;20572;-49
2023/05/14 06:50:53;;;;;;;9.27;8.47;;;18.90;59.70;;;;;;5065396;28;20442;-51
2023/05/14 06:53:19;;;;;;;10.17;8.67;;;18.80;59.60;;;;;;5060998;28;20989;-50
2023/05/14 06:55:46;;;;;;;10.07;8.90;;;18.80;59.50;;;;;;5067410;28;20231;-52
2023/05/14 06:58:12;;;;;;;9.17;8.37;;;18.90;59.60;;;;;;5068361;28;20275;-51
2023/05/14 07:00:38;;;;;;;9.40;8.60;;;18.90;59.60;;;;;;5063480;28;20993;-49
2023/05/14 07:03:04;;;;;;;8.83;8.00;;;19.00;59.70;;;;;;5067355;28;20210;-49
2023/05/14 07:05:29;;;;;;;10.77;9.70;;;19.00;59.60;;;;;;5063101;28;20525;-48
2023/05/14 07:07:55;;;;;;;9.57;8.70;;;19.10;59.50;;;;;;5056240;28;20655;-48
2023/05/14 07:10:21;;;;;;;9.87;8.57;;;19.20;59.10;;;;;;5070107;28;20233;-48
2023/05/14 07:12:47;;;;;;;10.23;8.37;;;19.20;59.00;;;;;;5067703;28;20596;-49
2023/05/14 07:15:13;;;;;;;9.73;8.77;;;19.20;59.00;;;;;;5062950;28;20557;-52
2023/05/14 07:17:38;;;;;;;10.47;9.47;;;19.20;59.00;;;;;;5061958;28;20442;-48
2023/05/14 07:20:04;;;;;;;8.57;7.87;;;19.30;59.00;;;;;;5068451;28;20192;-47
2023/05/14 07:22:30;;;;;;;8.73;7.93;;;19.30;59.10;;;;;;5064083;28;20235;-51
2023/05/14 07:24:55;;;;;;;9.20;8.40;;;19.20;59.10;;;;;;5062976;28;20814;-52
2023/05/14 07:27:21;;;;;;;9.20;8.40;;;19.30;59.10;;;;;;5069540;28;20309;-48
2023/05/14 07:29:48;;;;;;;9.87;9.07;;;19.40;59.00;;;;;;5069749;28;20203;-47
2023/05/14 07:32:14;;;;;;;9.23;8.40;;;19.40;58.70;;;;;;5068139;28;20216;-51
2023/05/14 07:34:39;;;;;;;9.57;8.73;;;19.40;58.50;;;;;;5068610;28;20470;-48
2023/05/14 07:37:05;;;;;;;8.67;7.87;;;19.40;58.60;;;;;;5064191;28;20246;-48
2023/05/14 07:39:31;;;;;;;9.97;9.07;;;19.50;58.50;;;;;;5060043;28;20200;-47
2023/05/14 07:41:56;;;;;;;11.00;9.90;;;19.60;58.40;;;;;;5061147;28;20879;-49
2023/05/14 07:44:22;;;;;;;9.00;8.10;;;19.70;58.10;;;;;;5058161;28;20183;-48
2023/05/14 07:46:47;;;;;;;9.80;8.77;;;19.60;57.70;;;;;;5056314;28;20195;-49
2023/05/14 07:49:13;;;;;;;9.37;8.57;;;19.60;57.90;;;;;;5060424;28;20315;-48
2023/05/14 07:51:38;;;;;;;7.87;7.27;;;19.70;57.50;;;;;;5061624;28;20257;-49
2023/05/14 07:54:04;;;;;;;8.23;7.53;;;19.90;57.20;;;;;;5055372;28;20192;-49
2023/05/14 07:56:30;;;;;;;9.83;8.97;;;20.10;57.20;;;;;;5064445;28;20220;-48
2023/05/14 07:58:55;;;;;;;8.97;8.07;;;20.10;56.70;;;;;;5061475;28;20201;-50
2023/05/14 08:01:21;;;;;;;9.33;8.43;;;20.10;55.70;;;;;;5062001;28;20227;-47
2023/05/14 08:03:47;;;;;;;9.33;8.60;;;20.00;55.30;;;;;;5069136;28;20196;-49
2023/05/14 08:06:12;;;;;;;9.27;8.47;;;20.00;55.80;;;;;;5072519;28;20195;-52
2023/05/14 08:08:38;;;;;;;9.60;8.70;;;20.00;56.20;;;;;;5069082;28;20262;-50
2023/05/14 08:11:04;;;;;;;16.40;9.67;;;20.10;56.10;;;;;;5066832;28;20192;-48
2023/05/14 08:13:29;;;;;;;9.27;8.47;;;20.20;55.90;;;;;;5066819;28;20241;-49
2023/05/14 08:15:55;;;;;;;10.60;9.60;;;20.10;56.00;;;;;;5068322;28;20200;-47
2023/05/14 08:18:21;;;;;;;9.03;8.30;;;20.10;56.50;;;;;;5073288;28;20227;-50
2023/05/14 08:20:47;;;;;;;8.83;7.93;;;20.20;56.70;;;;;;5067666;28;20216;-48
2023/05/14 08:23:13;;;;;;;8.87;8.07;;;20.40;56.70;;;;;;5061750;28;20204;-50
2023/05/14 08:25:38;;;;;;;9.60;8.70;;;20.60;57.60;;;;;;5066569;28;20448;-48
2023/05/14 08:28:04;;;;;;;9.17;8.47;;;20.90;57.20;;;;;;5067734;28;20245;-49
2023/05/14 08:30:30;;;;;;;10.30;8.00;;;21.10;55.40;;;;;;5060678;28;20199;-48
2023/05/14 08:32:57;;;;;;;9.23;8.30;;;21.40;54.90;;;;;;5069598;28;20246;-49
2023/05/14 08:35:23;;;;;;;9.37;8.57;;;21.50;54.30;;;;;;5065568;28;20192;-49
2023/05/14 08:37:49;;;;;;;9.47;8.60;;;21.70;53.90;;;;;;5067460;28;20465;-49
2023/05/14 08:40:14;;;;;;;9.30;8.40;;;21.80;53.20;;;;;;5065632;28;20295;-48
2023/05/14 08:42:40;;;;;;;9.30;7.83;;;21.80;53.00;;;;;;5062714;28;20937;-48
2023/05/14 08:45:15;;;;;;;7.90;7.20;;;21.90;53.10;;;;;;5057970;28;20271;-48
2023/05/14 08:47:42;;;;;;;8.97;8.27;;;22.00;53.60;;;;;;5068926;28;20187;-48
2023/05/14 08:50:08;;;;;;;9.07;8.27;;;22.10;54.60;;;;;;5071108;28;21208;-48
2023/05/14 08:52:34;;;;;;;8.90;8.10;;;22.10;54.30;;;;;;5072818;28;20445;-48
2023/05/14 08:55:03;;;;;;;8.30;7.60;;;22.30;54.10;;;;;;5061196;28;20244;-49
2023/05/14 08:57:30;;;;;;;10.87;9.87;;;22.40;53.40;;;;;;5072943;28;20196;-49
2023/05/14 08:59:57;;;;;;;10.67;9.70;;;22.50;53.00;;;;;;5072725;28;20921;-47
2023/05/14 09:02:26;;;;;;;9.60;8.70;;;22.70;51.50;;;;;;5072605;28;20519;-48
2023/05/14 09:04:55;;;;;;;8.93;8.03;;;22.80;51.10;;;;;;5067555;28;20774;-48
2023/05/14 09:07:20;;;;;;;8.77;8.00;;;22.80;52.60;;;;;;5072801;28;20513;-49
2023/05/14 09:09:46;;;;;;;9.13;8.33;;;22.90;51.70;;;;;;5072716;28;20533;-48
2023/05/14 09:12:12;;;;;;;8.57;7.87;;;23.00;50.80;;;;;;5071969;28;20198;-48
2023/05/14 09:14:38;;;;;;;9.63;8.63;;;23.10;51.10;;;;;;5070990;28;20426;-48
2023/05/14 09:17:04;;;;;;;8.80;8.00;;;23.10;50.30;;;;;;5067025;28;20556;-48
2023/05/14 09:19:30;;;;;;;8.17;7.47;;;23.20;50.00;;;;;;5072485;28;20224;-48
2023/05/14 09:21:57;;;;;;;9.07;8.30;;;23.30;49.70;;;;;;5072380;28;20265;-48
2023/05/14 09:24:25;;;;;;;8.23;7.53;;;23.30;49.90;;;;;;5071823;28;20956;-50
2023/05/14 09:26:52;;;;;;;8.97;8.07;;;23.30;50.00;;;;;;5070179;28;20438;-50
2023/05/14 09:29:18;;;;;;;8.23;7.53;;;23.30;50.10;;;;;;5072372;28;20437;-48
2023/05/14 09:31:44;;;;;;;8.30;7.50;;;23.30;50.50;;;;;;5072245;28;20418;-48
2023/05/14 09:34:10;;;;;;;8.30;7.50;;;23.30;50.60;;;;;;5071731;28;20274;-49
2023/05/14 09:36:35;;;;;;;7.97;7.37;;;23.30;50.70;;;;;;5072108;28;20659;-49
2023/05/14 09:39:05;;;;;;;8.10;7.40;;;23.30;50.10;;;;;;5069299;28;20196;-49
2023/05/14 09:41:30;;;;;;;8.77;8.07;;;23.30;49.40;;;;;;5067693;28;20333;-52
2023/05/14 09:43:56;;;;;;;8.93;8.13;;;23.30;49.80;;;;;;5069709;28;20992;-48
2023/05/14 09:46:22;;;;;;;8.13;7.43;;;23.30;49.60;;;;;;5072020;28;20192;-49
2023/05/14 09:48:48;;;;;;;8.70;8.00;;;23.30;49.60;;;;;;5071982;28;20437;-48
2023/05/14 09:51:16;;;;;;;8.27;7.40;;;23.30;50.00;;;;;;5071759;28;20426;-48
2023/05/14 09:53:43;;;;;;;8.10;7.40;;;23.10;50.10;;;;;;5067714;28;20556;-48
2023/05/14 09:56:08;;;;;;;8.80;7.70;;;23.20;50.40;;;;;;5071123;28;20450;-52
2023/05/14 09:58:34;;;;;;;7.30;6.70;;;23.10;50.10;;;;;;5071580;28;20500;-48
2023/05/14 10:01:00;;;;;;;8.00;7.27;;;23.20;49.70;;;;;;5071694;28;20211;-49
2023/05/14 10:03:29;;;;;;;9.07;8.27;;;23.30;49.50;;;;;;5068330;28;20187;-48
2023/05/14 10:05:57;;;;;;;8.47;7.77;;;23.30;49.60;;;;;;5071278;28;20461;-49
2023/05/14 10:08:33;;;;;;;8.57;7.77;;;23.10;50.40;;;;;;5071570;28;20427;-49
2023/05/14 10:11:02;;;;;;;9.17;8.27;;;23.10;49.80;;;;;;5069669;28;20440;-49
2023/05/14 10:13:36;;;;;;;7.80;7.20;;;23.20;49.30;;;;;;5068072;28;20806;-49
2023/05/14 10:16:15;;;;;;;8.20;7.50;;;23.30;49.10;;;;;;5064818;28;20473;-49
2023/05/14 10:18:45;;;;;;;7.97;7.23;;;23.40;49.10;;;;;;5071186;28;20430;-48
2023/05/14 10:21:13;;;;;;;6.50;6.00;;;23.40;48.90;;;;;;5071350;28;20465;-48
2023/05/14 10:23:39;;;;;;;8.60;7.73;;;23.50;49.10;;;;;;5069312;28;20426;-49
2023/05/14 10:26:05;;;;;;;7.47;6.87;;;23.50;48.70;;;;;;5067152;28;20442;-49
2023/05/14 10:28:31;;;;;;;6.90;6.30;;;23.50;48.50;;;;;;5071039;28;20440;-49
2023/05/14 10:30:59;;;;;;;6.27;5.77;;;23.50;48.30;;;;;;5070975;28;20471;-49
2023/05/14 10:33:25;;;;;;;7.67;6.30;;;23.60;48.30;;;;;;5070997;28;20702;-49
2023/05/14 10:36:01;;;;;;;5.83;5.43;;;23.70;49.00;;;;;;5069043;28;20529;-49
2023/05/14 10:38:37;;;;;;;6.57;6.07;;;23.80;49.60;;;;;;5068241;28;20453;-52
2023/05/14 10:41:03;;;;;;;6.93;6.33;;;23.70;50.00;;;;;;5070851;28;20481;-48
2023/05/14 10:43:30;;;;;;;6.00;5.50;;;23.80;50.50;;;;;;5070944;28;20438;-48
2023/05/14 10:45:57;;;;;;;6.60;6.00;;;23.80;49.00;;;;;;5067790;28;20438;-49
2023/05/14 10:48:24;;;;;;;6.80;6.30;;;23.80;48.60;;;;;;5068167;28;20809;-48
2023/05/14 10:50:51;;;;;;;7.40;5.50;;;24.10;48.70;;;;;;5070674;28;20422;-52
2023/05/14 10:53:17;;;;;;;6.77;5.87;;;24.30;48.00;;;;;;5070769;28;20429;-51
2023/05/14 10:55:44;;;;;;;6.17;5.67;;;24.30;48.20;;;;;;5070309;28;20469;-48
2023/05/14 10:58:10;;;;;;;6.67;6.17;;;24.40;48.00;;;;;;5069874;28;20442;-48
2023/05/14 11:00:37;;;;;;;7.03;6.43;;;24.40;47.70;;;;;;5070472;28;20441;-49
2023/05/14 11:03:04;;;;;;;6.93;6.33;;;24.40;47.70;;;;;;5070582;28;20491;-50
2023/05/14 11:05:31;;;;;;;6.37;5.77;;;24.40;47.50;;;;;;5068639;28;20821;-49
2023/05/14 11:07:57;;;;;;;6.67;6.07;;;24.40;47.60;;;;;;5070694;28;20426;-51
2023/05/14 11:10:28;;;;;;;6.40;5.90;;;24.40;47.30;;;;;;5064527;28;20434;-51
2023/05/14 11:12:56;;;;;;;5.70;5.30;;;24.40;47.20;;;;;;5068583;28;20457;-53
2023/05/14 11:15:23;;;;;;;7.17;6.57;;;24.50;47.80;;;;;;5070140;28;20426;-50
2023/05/14 11:17:50;;;;;;;7.17;5.90;;;24.50;48.30;;;;;;5070323;28;20712;-51
2023/05/14 11:20:17;;;;;;;8.07;7.37;;;24.40;49.90;;;;;;5066170;28;20473;-52
2023/05/14 11:22:43;;;;;;;7.10;6.50;;;24.40;48.70;;;;;;5061086;28;20539;-50
2023/05/14 11:25:10;;;;;;;6.80;6.27;;;24.60;50.30;;;;;;5066094;28;20441;-49
2023/05/14 11:27:39;;;;;;;7.33;6.07;;;24.90;49.10;;;;;;5060787;28;20450;-52
2023/05/14 11:30:15;;;;;;;7.33;6.63;;;25.20;48.80;;;;;;5060062;28;20447;-50
2023/05/14 11:32:42;;;;;;;6.10;5.60;;;25.40;47.00;;;;;;5054374;28;20442;-53
2023/05/14 11:35:08;;;;;;;5.60;5.20;;;25.30;46.60;;;;;;5061236;28;20499;-49
2023/05/14 11:37:33;;;;;;;6.20;5.70;;;25.00;47.80;;;;;;5060314;28;20913;-50
2023/05/14 11:40:00;;;;;;;5.70;5.20;;;25.00;46.40;;;;;;5071866;28;20267;-49
2023/05/14 11:42:26;;;;;;;5.80;5.30;;;25.20;46.00;;;;;;5066946;28;20216;-51
2023/05/14 11:44:52;;;;;;;5.10;4.63;;;25.50;46.40;;;;;;5064950;28;20414;-50
2023/05/14 11:47:20;;;;;;;5.07;3.43;;;25.40;46.70;;;;;;5071803;28;20199;-49
2023/05/14 11:49:46;;;;;;;4.50;4.20;;;25.40;45.60;;;;;;5073098;28;20477;-52
2023/05/14 11:52:13;;;;;;;3.57;3.37;;;25.50;44.50;;;;;;5070378;28;20510;-50
2023/05/14 11:54:41;;;;;;;3.50;3.30;;;25.60;44.60;;;;;;5068361;28;20620;-52
2023/05/14 11:57:11;;;;;;;3.83;3.53;;;25.90;43.60;;;;;;5070686;28;20435;-51
2023/05/14 11:59:38;;;;;;;3.80;3.43;;;26.00;43.00;;;;;;5066281;28;20455;-49
2023/05/14 12:02:08;;;;;;;3.63;3.43;;;26.10;42.40;;;;;;5063947;28;20504;-49
2023/05/14 12:04:34;;;;;;;3.90;3.60;;;25.90;42.20;;;;;;5073579;28;20965;-52
2023/05/14 12:07:11;;;;;;;4.30;4.00;;;26.00;40.60;;;;;;5065798;28;20525;-53
2023/05/14 12:09:41;;;;;;;5.10;4.20;;;26.00;42.50;;;;;;5071792;28;20244;-51
2023/05/14 12:12:10;;;;;;;4.07;3.77;;;26.20;41.80;;;;;;5066357;28;20464;-51
2023/05/14 12:14:44;;;;;;;4.00;3.70;;;26.30;41.20;;;;;;5072261;28;20506;-53
2023/05/14 12:17:20;;;;;;;6.20;4.47;;;26.20;41.00;;;;;;5066100;28;20564;-52
2023/05/14 12:19:51;;;;;;;4.60;4.30;;;26.40;41.80;;;;;;5073219;28;20444;-50
2023/05/14 12:22:21;;;;;;;4.40;4.10;;;26.50;42.00;;;;;;5068605;28;21129;-51
2023/05/14 12:24:58;;;;;;;4.07;3.77;;;26.50;41.90;;;;;;5069919;28;20481;-49
2023/05/14 12:27:25;;;;;;;4.57;4.00;;;26.70;42.70;;;;;;5061582;28;20445;-52
2023/05/14 12:29:58;;;;;;;4.40;4.10;;;26.80;41.30;;;;;;5071019;28;20446;-49
2023/05/14 12:32:25;;;;;;;4.60;4.20;;;26.90;40.50;;;;;;5073191;28;20441;-53
2023/05/14 12:34:51;;;;;;;4.80;4.40;;;26.80;41.30;;;;;;5065031;28;20450;-52
2023/05/14 12:37:17;;;;;;;5.00;4.60;;;26.70;40.70;;;;;;5071705;28;20457;-49
2023/05/14 12:39:43;;;;;;;5.30;4.90;;;26.50;39.20;;;;;;5070654;28;20221;-51
2023/05/14 12:42:08;;;;;;;4.53;4.23;;;26.50;40.10;;;;;;5065606;28;20577;-49